sensor_id;sensor_type;location;lat;lon;timestamp;pressure;altitude;pressure_sealevel;temperature;humidity
76132;BME280;64877;50.994;13.650;2022-11-20T00:02:18;99356.22;;;-5.23;78.11
76132;BME280;64877;50.994;13.650;2022-11-20T00:04:44;99356.28;;;-5.25;77.87
76132;BME280;64877;50.994;13.650;2022-11-20T00:07:09;99359.59;;;-5.15;77.71
76132;BME280;64877;50.994;13.650;2022-11-20T00:09:35;99357.09;;;-5.21;77.97
76132;BME280;64877;50.994;13.650;2022-11-20T00:12:00;99359.00;;;-5.29;78.45
76132;BME280;64877;50.994;13.650;2022-11-20T00:14:25;99352.13;;;-5.36;78.12
76132;BME280;64877;50.994;13.650;2022-11-20T00:16:51;99357.19;;;-5.27;78.20
76132;BME280;64877;50.994;13.650;2022-11-20T00:19:16;99359.72;;;-5.23;77.94
76132;BME280;64877;50.994;13.650;2022-11-20T00:21:41;99357.44;;;-5.39;78.47
76132;BME280;64877;50.994;13.650;2022-11-20T00:24:10;99356.31;;;-5.28;77.03
76132;BME280;64877;50.994;13.650;2022-11-20T00:26:35;99355.16;;;-5.13;77.29
76132;BME280;64877;50.994;13.650;2022-11-20T00:29:01;99359.72;;;-5.21;76.94
76132;BME280;64877;50.994;13.650;2022-11-20T00:31:27;99360.00;;;-5.38;76.99
76132;BME280;64877;50.994;13.650;2022-11-20T00:33:53;99364.75;;;-5.57;77.19
76132;BME280;64877;50.994;13.650;2022-11-20T00:36:21;99366.66;;;-5.65;77.81
76132;BME280;64877;50.994;13.650;2022-11-20T00:38:47;99372.09;;;-5.77;78.91
76132;BME280;64877;50.994;13.650;2022-11-20T00:41:14;99370.47;;;-5.84;78.74
76132;BME280;64877;50.994;13.650;2022-11-20T00:43:40;99367.13;;;-5.92;78.95
76132;BME280;64877;50.994;13.650;2022-11-20T00:46:12;99369.69;;;-5.89;79.87
76132;BME280;64877;50.994;13.650;2022-11-20T00:48:38;99373.94;;;-5.81;77.94
76132;BME280;64877;50.994;13.650;2022-11-20T00:51:04;99372.16;;;-5.80;78.52
76132;BME280;64877;50.994;13.650;2022-11-20T00:53:29;99382.97;;;-5.95;78.28
76132;BME280;64877;50.994;13.650;2022-11-20T00:55:57;99381.38;;;-6.06;79.56
76132;BME280;64877;50.994;13.650;2022-11-20T00:58:23;99375.00;;;-5.92;79.23
76132;BME280;64877;50.994;13.650;2022-11-20T01:00:49;99380.19;;;-5.89;78.27
76132;BME280;64877;50.994;13.650;2022-11-20T01:03:18;99374.13;;;-5.91;78.81
76132;BME280;64877;50.994;13.650;2022-11-20T01:05:43;99379.25;;;-5.87;79.15
76132;BME280;64877;50.994;13.650;2022-11-20T01:08:09;99374.88;;;-5.85;78.77
76132;BME280;64877;50.994;13.650;2022-11-20T01:10:34;99378.22;;;-5.75;79.15
76132;BME280;64877;50.994;13.650;2022-11-20T01:13:00;99371.31;;;-5.82;78.32
76132;BME280;64877;50.994;13.650;2022-11-20T01:15:48;99373.03;;;-5.80;77.58
76132;BME280;64877;50.994;13.650;2022-11-20T01:18:13;99371.94;;;-5.68;77.69
76132;BME280;64877;50.994;13.650;2022-11-20T01:20:39;99380.78;;;-5.72;77.05
76132;BME280;64877;50.994;13.650;2022-11-20T01:23:04;99381.75;;;-5.78;77.24
76132;BME280;64877;50.994;13.650;2022-11-20T01:25:29;99389.69;;;-5.82;77.67
76132;BME280;64877;50.994;13.650;2022-11-20T01:27:55;99390.09;;;-6.04;78.44
76132;BME280;64877;50.994;13.650;2022-11-20T01:30:20;99380.50;;;-6.08;78.18
76132;BME280;64877;50.994;13.650;2022-11-20T01:32:46;99381.84;;;-5.84;78.14
76132;BME280;64877;50.994;13.650;2022-11-20T01:35:11;99373.94;;;-5.82;77.27
76132;BME280;64877;50.994;13.650;2022-11-20T01:37:36;99367.72;;;-5.78;77.13
76132;BME280;64877;50.994;13.650;2022-11-20T01:40:02;99372.31;;;-5.89;77.63
76132;BME280;64877;50.994;13.650;2022-11-20T01:42:28;99369.03;;;-6.01;77.94
76132;BME280;64877;50.994;13.650;2022-11-20T01:48:15;99356.84;;;-6.08;78.54
76132;BME280;64877;50.994;13.650;2022-11-20T01:50:41;99356.84;;;-6.08;79.18
76132;BME280;64877;50.994;13.650;2022-11-20T01:53:10;99355.09;;;-6.06;78.60
76132;BME280;64877;50.994;13.650;2022-11-20T01:55:45;99350.53;;;-5.94;78.92
76132;BME280;64877;50.994;13.650;2022-11-20T01:58:12;99359.22;;;-5.92;78.49
76132;BME280;64877;50.994;13.650;2022-11-20T02:00:38;99354.03;;;-5.95;77.65
76132;BME280;64877;50.994;13.650;2022-11-20T02:03:13;99361.66;;;-5.80;77.04
76132;BME280;64877;50.994;13.650;2022-11-20T02:08:09;99357.31;;;-5.84;77.44
76132;BME280;64877;50.994;13.650;2022-11-20T02:10:34;99352.75;;;-5.73;75.95
76132;BME280;64877;50.994;13.650;2022-11-20T02:13:00;99343.91;;;-5.69;76.94
76132;BME280;64877;50.994;13.650;2022-11-20T02:15:45;99351.44;;;-5.99;76.75
76132;BME280;64877;50.994;13.650;2022-11-20T02:18:13;99344.28;;;-5.90;77.21
76132;BME280;64877;50.994;13.650;2022-11-20T02:20:44;99337.94;;;-5.79;76.81
76132;BME280;64877;50.994;13.650;2022-11-20T02:23:18;99340.72;;;-5.86;76.47
76132;BME280;64877;50.994;13.650;2022-11-20T02:25:45;99338.97;;;-5.87;75.52
76132;BME280;64877;50.994;13.650;2022-11-20T02:28:11;99339.34;;;-6.09;76.70
76132;BME280;64877;50.994;13.650;2022-11-20T02:30:36;99339.63;;;-6.27;77.86
76132;BME280;64877;50.994;13.650;2022-11-20T02:33:01;99338.09;;;-6.40;79.29
76132;BME280;64877;50.994;13.650;2022-11-20T02:37:58;99343.47;;;-6.49;79.77
76132;BME280;64877;50.994;13.650;2022-11-20T02:40:25;99331.13;;;-6.41;79.72
76132;BME280;64877;50.994;13.650;2022-11-20T02:42:54;99331.88;;;-6.35;78.85
76132;BME280;64877;50.994;13.650;2022-11-20T02:45:19;99327.22;;;-6.16;78.57
76132;BME280;64877;50.994;13.650;2022-11-20T02:47:45;99337.00;;;-6.26;78.27
76132;BME280;64877;50.994;13.650;2022-11-20T02:50:10;99334.06;;;-6.06;77.62
76132;BME280;64877;50.994;13.650;2022-11-20T02:52:36;99334.06;;;-6.06;77.79
76132;BME280;64877;50.994;13.650;2022-11-20T02:55:01;99330.41;;;-5.95;77.88
76132;BME280;64877;50.994;13.650;2022-11-20T02:57:27;99325.38;;;-6.11;78.12
76132;BME280;64877;50.994;13.650;2022-11-20T02:59:53;99325.38;;;-6.11;77.65
76132;BME280;64877;50.994;13.650;2022-11-20T03:02:19;99330.69;;;-6.14;77.10
76132;BME280;64877;50.994;13.650;2022-11-20T03:04:44;99321.00;;;-6.12;77.32
76132;BME280;64877;50.994;13.650;2022-11-20T03:07:09;99319.28;;;-6.13;77.70
76132;BME280;64877;50.994;13.650;2022-11-20T03:09:35;99321.75;;;-6.04;76.81
76132;BME280;64877;50.994;13.650;2022-11-20T03:12:01;99319.16;;;-6.05;77.40
76132;BME280;64877;50.994;13.650;2022-11-20T03:14:26;99323.56;;;-6.06;75.54
76132;BME280;64877;50.994;13.650;2022-11-20T03:16:51;99328.09;;;-6.17;76.18
76132;BME280;64877;50.994;13.650;2022-11-20T03:19:17;99326.34;;;-6.16;75.69
76132;BME280;64877;50.994;13.650;2022-11-20T03:21:42;99316.84;;;-6.25;76.13
76132;BME280;64877;50.994;13.650;2022-11-20T03:24:08;99316.09;;;-6.33;76.01
76132;BME280;64877;50.994;13.650;2022-11-20T03:26:33;99320.59;;;-6.41;76.50
76132;BME280;64877;50.994;13.650;2022-11-20T03:29:01;99319.06;;;-6.58;77.80
76132;BME280;64877;50.994;13.650;2022-11-20T03:31:32;99320.97;;;-6.66;78.00
76132;BME280;64877;50.994;13.650;2022-11-20T03:33:58;99332.34;;;-6.68;78.01
76132;BME280;64877;50.994;13.650;2022-11-20T03:36:25;99319.47;;;-6.85;79.28
76132;BME280;64877;50.994;13.650;2022-11-20T03:38:53;99326.44;;;-6.84;79.05
76132;BME280;64877;50.994;13.650;2022-11-20T03:41:20;99319.97;;;-6.59;78.44
76132;BME280;64877;50.994;13.650;2022-11-20T03:43:49;99325.91;;;-6.44;78.36
76132;BME280;64877;50.994;13.650;2022-11-20T03:46:16;99323.22;;;-6.41;77.72
76132;BME280;64877;50.994;13.650;2022-11-20T03:48:41;99327.63;;;-6.43;77.70
76132;BME280;64877;50.994;13.650;2022-11-20T03:51:09;99329.09;;;-6.24;77.08
76132;BME280;64877;50.994;13.650;2022-11-20T03:53:34;99316.09;;;-6.33;76.75
76132;BME280;64877;50.994;13.650;2022-11-20T03:56:00;99322.47;;;-6.49;77.11
76132;BME280;64877;50.994;13.650;2022-11-20T03:58:25;99326.22;;;-6.66;77.61
76132;BME280;64877;50.994;13.650;2022-11-20T04:00:50;99323.63;;;-6.70;78.27
76132;BME280;64877;50.994;13.650;2022-11-20T04:03:16;99315.72;;;-6.69;78.47
76132;BME280;64877;50.994;13.650;2022-11-20T04:05:41;99316.50;;;-6.61;78.04
76132;BME280;64877;50.994;13.650;2022-11-20T04:08:06;99322.69;;;-6.65;78.50
76132;BME280;64877;50.994;13.650;2022-11-20T04:10:32;99318.25;;;-6.60;78.84
76132;BME280;64877;50.994;13.650;2022-11-20T04:12:57;99313.78;;;-6.55;78.10
76132;BME280;64877;50.994;13.650;2022-11-20T04:15:22;99306.66;;;-6.46;77.25
76132;BME280;64877;50.994;13.650;2022-11-20T04:17:48;99307.53;;;-6.47;78.11
76132;BME280;64877;50.994;13.650;2022-11-20T04:20:13;99304.91;;;-6.47;78.01
76132;BME280;64877;50.994;13.650;2022-11-20T04:22:39;99298.91;;;-6.54;77.70
76132;BME280;64877;50.994;13.650;2022-11-20T04:25:05;99300.03;;;-6.73;77.68
76132;BME280;64877;50.994;13.650;2022-11-20T04:27:30;99307.03;;;-6.71;78.03
76132;BME280;64877;50.994;13.650;2022-11-20T04:29:56;99298.28;;;-6.73;78.48
76132;BME280;64877;50.994;13.650;2022-11-20T04:32:21;99293.75;;;-6.60;77.28
76132;BME280;64877;50.994;13.650;2022-11-20T04:34:47;99288.72;;;-6.77;77.33
76132;BME280;64877;50.994;13.650;2022-11-20T04:37:12;99287.91;;;-6.82;77.84
76132;BME280;64877;50.994;13.650;2022-11-20T04:39:37;99287.16;;;-6.92;79.05
76132;BME280;64877;50.994;13.650;2022-11-20T04:42:03;99287.19;;;-6.93;78.76
76132;BME280;64877;50.994;13.650;2022-11-20T04:44:47;99278.34;;;-6.85;78.76
76132;BME280;64877;50.994;13.650;2022-11-20T04:47:12;99284.34;;;-6.78;79.14
76132;BME280;64877;50.994;13.650;2022-11-20T04:49:37;99277.19;;;-6.67;77.45
76132;BME280;64877;50.994;13.650;2022-11-20T04:52:03;99280.59;;;-6.59;77.64
76132;BME280;64877;50.994;13.650;2022-11-20T04:54:28;99274.59;;;-6.68;77.47
76132;BME280;64877;50.994;13.650;2022-11-20T04:56:54;99284.09;;;-6.60;78.54
76132;BME280;64877;50.994;13.650;2022-11-20T04:59:19;99280.56;;;-6.56;77.26
76132;BME280;64877;50.994;13.650;2022-11-20T05:01:44;99282.16;;;-6.45;77.56
76132;BME280;64877;50.994;13.650;2022-11-20T05:04:10;99286.56;;;-6.49;76.87
76132;BME280;64877;50.994;13.650;2022-11-20T05:06:35;99285.50;;;-6.36;76.79
76132;BME280;64877;50.994;13.650;2022-11-20T05:09:01;99296.03;;;-6.39;75.87
76132;BME280;64877;50.994;13.650;2022-11-20T05:11:27;99292.59;;;-6.42;76.29
76132;BME280;64877;50.994;13.650;2022-11-20T05:13:54;99301.25;;;-6.37;75.48
76132;BME280;64877;50.994;13.650;2022-11-20T05:16:22;99290.00;;;-6.44;76.10
76132;BME280;64877;50.994;13.650;2022-11-20T05:18:48;99298.06;;;-6.58;76.42
76132;BME280;64877;50.994;13.650;2022-11-20T05:21:14;99290.16;;;-6.55;77.23
76132;BME280;64877;50.994;13.650;2022-11-20T05:23:40;99290.88;;;-6.46;77.46
76132;BME280;64877;50.994;13.650;2022-11-20T05:26:08;99291.44;;;-6.25;76.44
76132;BME280;64877;50.994;13.650;2022-11-20T05:28:34;99285.72;;;-6.51;77.51
76132;BME280;64877;50.994;13.650;2022-11-20T05:31:11;99287.22;;;-6.35;77.23
76132;BME280;64877;50.994;13.650;2022-11-20T05:33:39;99284.78;;;-6.47;77.00
76132;BME280;64877;50.994;13.650;2022-11-20T05:36:05;99279.28;;;-6.30;76.43
76132;BME280;64877;50.994;13.650;2022-11-20T05:38:31;99290.19;;;-6.56;76.60
76132;BME280;64877;50.994;13.650;2022-11-20T05:41:04;99285.94;;;-6.65;77.57
76132;BME280;64877;50.994;13.650;2022-11-20T05:43:34;99287.75;;;-6.70;77.94
76132;BME280;64877;50.994;13.650;2022-11-20T05:46:00;99284.34;;;-6.78;77.15
76132;BME280;64877;50.994;13.650;2022-11-20T05:48:25;99277.38;;;-6.79;77.14
76132;BME280;64877;50.994;13.650;2022-11-20T05:50:50;99279.00;;;-6.72;76.70
76132;BME280;64877;50.994;13.650;2022-11-20T05:53:16;99277.47;;;-6.85;77.29
76132;BME280;64877;50.994;13.650;2022-11-20T05:55:41;99280.91;;;-6.80;76.86
76132;BME280;64877;50.994;13.650;2022-11-20T05:58:07;99272.25;;;-6.88;77.15
76132;BME280;64877;50.994;13.650;2022-11-20T06:00:32;99278.44;;;-6.92;76.74
76132;BME280;64877;50.994;13.650;2022-11-20T06:02:57;99273.22;;;-6.94;77.40
76132;BME280;64877;50.994;13.650;2022-11-20T06:05:23;99277.69;;;-7.00;76.65
76132;BME280;64877;50.994;13.650;2022-11-20T06:07:48;99274.25;;;-7.06;77.50
76132;BME280;64877;50.994;13.650;2022-11-20T06:10:13;99275.16;;;-7.10;77.89
76132;BME280;64877;50.994;13.650;2022-11-20T06:12:39;99270.84;;;-7.14;78.26
76132;BME280;64877;50.994;13.650;2022-11-20T06:15:05;99272.44;;;-7.00;77.81
76132;BME280;64877;50.994;13.650;2022-11-20T06:17:31;99271.38;;;-6.89;77.40
76132;BME280;64877;50.994;13.650;2022-11-20T06:19:56;99259.22;;;-6.94;77.85
76132;BME280;64877;50.994;13.650;2022-11-20T06:22:21;99267.13;;;-6.96;78.06
76132;BME280;64877;50.994;13.650;2022-11-20T06:24:47;99261.97;;;-7.04;77.53
76132;BME280;64877;50.994;13.650;2022-11-20T06:27:12;99259.41;;;-7.08;77.61
76132;BME280;64877;50.994;13.650;2022-11-20T06:29:38;99265.63;;;-7.17;78.19
76132;BME280;64877;50.994;13.650;2022-11-20T06:32:03;99257.69;;;-7.09;77.75
76132;BME280;64877;50.994;13.650;2022-11-20T06:34:29;99260.97;;;-6.96;78.42
76132;BME280;64877;50.994;13.650;2022-11-20T06:36:54;99252.03;;;-6.82;77.13
76132;BME280;64877;50.994;13.650;2022-11-20T06:39:19;99261.84;;;-6.94;77.09
76132;BME280;64877;50.994;13.650;2022-11-20T06:41:45;99257.22;;;-6.77;77.55
76132;BME280;64877;50.994;13.650;2022-11-20T06:44:10;99262.44;;;-6.74;76.92
76132;BME280;64877;50.994;13.650;2022-11-20T06:46:36;99257.97;;;-6.69;76.90
76132;BME280;64877;50.994;13.650;2022-11-20T06:49:01;99255.44;;;-6.75;76.15
76132;BME280;64877;50.994;13.650;2022-11-20T06:51:27;99259.84;;;-6.77;76.32
76132;BME280;64877;50.994;13.650;2022-11-20T06:53:53;99254.81;;;-6.92;77.82
76132;BME280;64877;50.994;13.650;2022-11-20T06:56:18;99254.44;;;-6.66;76.69
76132;BME280;64877;50.994;13.650;2022-11-20T06:58:44;99249.19;;;-6.65;76.21
76132;BME280;64877;50.994;13.650;2022-11-20T07:01:11;99252.03;;;-6.80;76.64
76132;BME280;64877;50.994;13.650;2022-11-20T07:03:38;99249.81;;;-6.49;76.27
76132;BME280;64877;50.994;13.650;2022-11-20T07:06:04;99248.97;;;-6.53;75.32
76132;BME280;64877;50.994;13.650;2022-11-20T07:08:30;99252.13;;;-6.29;75.06
76132;BME280;64877;50.994;13.650;2022-11-20T07:11:05;99243.94;;;-6.12;74.68
76132;BME280;64877;50.994;13.650;2022-11-20T07:13:31;99248.28;;;-6.10;75.29
76132;BME280;64877;50.994;13.650;2022-11-20T07:16:02;99243.19;;;-5.73;74.70
76132;BME280;64877;50.994;13.650;2022-11-20T07:18:28;99242.31;;;-5.73;74.23
76132;BME280;64877;50.994;13.650;2022-11-20T07:20:53;99236.81;;;-5.59;72.35
76132;BME280;64877;50.994;13.650;2022-11-20T07:23:19;99237.59;;;-5.54;73.15
76132;BME280;64877;50.994;13.650;2022-11-20T07:25:44;99239.25;;;-5.50;73.27
76132;BME280;64877;50.994;13.650;2022-11-20T07:28:10;99233.91;;;-5.47;73.09
76132;BME280;64877;50.994;13.650;2022-11-20T07:30:36;99241.25;;;-5.20;73.33
76132;BME280;64877;50.994;13.650;2022-11-20T07:33:01;99241.91;;;-5.08;72.21
76132;BME280;64877;50.994;13.650;2022-11-20T07:35:26;99237.16;;;-4.93;72.10
76132;BME280;64877;50.994;13.650;2022-11-20T07:37:52;99228.69;;;-5.05;72.24
76132;BME280;64877;50.994;13.650;2022-11-20T07:40:17;99223.91;;;-4.88;72.73
76132;BME280;64877;50.994;13.650;2022-11-20T07:42:50;99225.59;;;-4.47;72.04
76132;BME280;64877;50.994;13.650;2022-11-20T07:45:17;99217.09;;;-4.24;69.95
76132;BME280;64877;50.994;13.650;2022-11-20T07:47:43;99217.09;;;-4.22;69.39
76132;BME280;64877;50.994;13.650;2022-11-20T07:50:08;99212.28;;;-4.06;70.42
76132;BME280;64877;50.994;13.650;2022-11-20T07:52:34;99208.28;;;-3.88;69.56
76132;BME280;64877;50.994;13.650;2022-11-20T07:54:59;99214.41;;;-3.88;70.08
76132;BME280;64877;50.994;13.650;2022-11-20T07:57:25;99211.34;;;-3.71;69.65
76132;BME280;64877;50.994;13.650;2022-11-20T07:59:50;99203.38;;;-3.39;69.42
76132;BME280;64877;50.994;13.650;2022-11-20T08:02:15;99208.13;;;-3.20;67.78
76132;BME280;64877;50.994;13.650;2022-11-20T08:04:41;99203.03;;;-3.26;67.70
76132;BME280;64877;50.994;13.650;2022-11-20T08:07:06;99204.91;;;-3.00;66.83
76132;BME280;64877;50.994;13.650;2022-11-20T08:09:31;99198.09;;;-2.79;66.85
76132;BME280;64877;50.994;13.650;2022-11-20T08:11:57;99197.44;;;-2.58;67.23
76132;BME280;64877;50.994;13.650;2022-11-20T08:14:41;99194.91;;;-2.35;66.03
76132;BME280;64877;50.994;13.650;2022-11-20T08:17:07;99201.16;;;-2.37;66.64
76132;BME280;64877;50.994;13.650;2022-11-20T08:19:32;99194.69;;;-2.02;65.12
76132;BME280;64877;50.994;13.650;2022-11-20T08:21:57;99191.31;;;-1.80;65.37
76132;BME280;64877;50.994;13.650;2022-11-20T08:24:23;99190.88;;;-1.68;63.78
76132;BME280;64877;50.994;13.650;2022-11-20T08:26:49;99191.78;;;-1.69;63.26
76132;BME280;64877;50.994;13.650;2022-11-20T08:29:15;99186.78;;;-1.77;63.59
76132;BME280;64877;50.994;13.650;2022-11-20T08:31:40;99181.47;;;-1.77;63.70
76132;BME280;64877;50.994;13.650;2022-11-20T08:34:06;99184.44;;;-1.61;64.45
76132;BME280;64877;50.994;13.650;2022-11-20T08:36:33;99182.16;;;-1.47;63.88
76132;BME280;64877;50.994;13.650;2022-11-20T08:38:59;99183.13;;;-1.49;63.43
76132;BME280;64877;50.994;13.650;2022-11-20T08:41:25;99185.56;;;-1.43;63.67
76132;BME280;64877;50.994;13.650;2022-11-20T08:44:02;99173.88;;;-1.38;64.02
76132;BME280;64877;50.994;13.650;2022-11-20T08:46:33;99176.06;;;-1.25;63.38
76132;BME280;64877;50.994;13.650;2022-11-20T08:48:59;99168.53;;;-1.13;63.36
76132;BME280;64877;50.994;13.650;2022-11-20T08:51:24;99166.59;;;-0.86;63.44
76132;BME280;64877;50.994;13.650;2022-11-20T08:53:50;99153.16;;;-0.59;62.38
76132;BME280;64877;50.994;13.650;2022-11-20T08:56:16;99156.97;;;-0.66;64.75
76132;BME280;64877;50.994;13.650;2022-11-20T08:58:42;99158.69;;;-0.65;64.07
76132;BME280;64877;50.994;13.650;2022-11-20T09:01:08;99147.72;;;-0.56;62.85
76132;BME280;64877;50.994;13.650;2022-11-20T09:03:33;99142.47;;;-0.36;63.99
76132;BME280;64877;50.994;13.650;2022-11-20T09:06:00;99138.75;;;-0.32;62.35
76132;BME280;64877;50.994;13.650;2022-11-20T09:08:27;99131.19;;;-0.20;62.18
76132;BME280;64877;50.994;13.650;2022-11-20T09:10:54;99117.34;;;-0.27;61.23
76132;BME280;64877;50.994;13.650;2022-11-20T09:13:20;99118.34;;;-0.30;61.66
76132;BME280;64877;50.994;13.650;2022-11-20T09:15:46;99121.00;;;-0.30;62.04
76132;BME280;64877;50.994;13.650;2022-11-20T09:18:12;99127.09;;;-0.28;62.71
76132;BME280;64877;50.994;13.650;2022-11-20T09:20:38;99124.91;;;-0.18;62.02
76132;BME280;64877;50.994;13.650;2022-11-20T09:23:03;99126.97;;;-0.24;61.49
76132;BME280;64877;50.994;13.650;2022-11-20T09:25:29;99115.56;;;-0.06;61.09
76132;BME280;64877;50.994;13.650;2022-11-20T09:27:58;99122.44;;;0.18;60.64
76132;BME280;64877;50.994;13.650;2022-11-20T09:30:24;99118.16;;;0.16;60.65
76132;BME280;64877;50.994;13.650;2022-11-20T09:32:49;99123.84;;;0.27;60.44
76132;BME280;64877;50.994;13.650;2022-11-20T09:35:15;99125.31;;;0.53;59.82
76132;BME280;64877;50.994;13.650;2022-11-20T09:37:41;99130.81;;;1.43;55.79
76132;BME280;64877;50.994;13.650;2022-11-20T09:40:09;99113.59;;;2.54;53.39
76132;BME280;64877;50.994;13.650;2022-11-20T09:45:37;99112.22;;;2.78;53.94
76132;BME280;64877;50.994;13.650;2022-11-20T09:56:19;99083.88;;;8.40;39.40
76132;BME280;64877;50.994;13.650;2022-11-20T09:58:48;99071.75;;;10.32;36.89
76132;BME280;64877;50.994;13.650;2022-11-20T10:01:18;99071.78;;;10.21;36.03
76132;BME280;64877;50.994;13.650;2022-11-20T10:04:15;99058.63;;;12.08;32.84
76132;BME280;64877;50.994;13.650;2022-11-20T10:06:49;99053.47;;;12.53;31.28
76132;BME280;64877;50.994;13.650;2022-11-20T10:14:30;99066.03;;;7.45;40.53
76132;BME280;64877;50.994;13.650;2022-11-20T10:20:20;99069.19;;;4.65;48.08
76132;BME280;64877;50.994;13.650;2022-11-20T10:25:54;99060.59;;;4.31;50.00
76132;BME280;64877;50.994;13.650;2022-11-20T10:28:46;99060.28;;;3.93;52.60
76132;BME280;64877;50.994;13.650;2022-11-20T10:33:52;99065.09;;;3.26;55.25
76132;BME280;64877;50.994;13.650;2022-11-20T10:36:28;99065.72;;;3.00;56.74
76132;BME280;64877;50.994;13.650;2022-11-20T10:38:59;99073.13;;;2.79;58.07
76132;BME280;64877;50.994;13.650;2022-11-20T10:41:30;99079.19;;;2.49;59.55
76132;BME280;64877;50.994;13.650;2022-11-20T10:44:05;99080.41;;;2.26;61.63
76132;BME280;64877;50.994;13.650;2022-11-20T10:46:40;99080.59;;;2.06;61.44
76132;BME280;64877;50.994;13.650;2022-11-20T10:49:16;99085.16;;;2.04;62.00
76132;BME280;64877;50.994;13.650;2022-11-20T10:57:11;99081.63;;;1.86;64.41
76132;BME280;64877;50.994;13.650;2022-11-20T11:02:23;99068.66;;;2.13;63.68
76132;BME280;64877;50.994;13.650;2022-11-20T11:04:53;99079.44;;;1.94;63.94
76132;BME280;64877;50.994;13.650;2022-11-20T11:07:34;99074.31;;;2.07;64.39
76132;BME280;64877;50.994;13.650;2022-11-20T11:10:01;99072.31;;;1.95;64.51
76132;BME280;64877;50.994;13.650;2022-11-20T11:12:34;99069.50;;;1.80;65.67
76132;BME280;64877;50.994;13.650;2022-11-20T11:15:00;99055.53;;;1.93;65.28
76132;BME280;64877;50.994;13.650;2022-11-20T11:17:29;99065.66;;;1.86;64.48
76132;BME280;64877;50.994;13.650;2022-11-20T11:22:50;99069.50;;;1.80;64.17
76132;BME280;64877;50.994;13.650;2022-11-20T11:25:32;99071.69;;;1.90;63.70
76132;BME280;64877;50.994;13.650;2022-11-20T11:28:21;99051.78;;;1.97;63.99
76132;BME280;64877;50.994;13.650;2022-11-20T11:30:47;99050.22;;;2.10;63.77
76132;BME280;64877;50.994;13.650;2022-11-20T11:33:28;99049.97;;;1.97;63.96
76132;BME280;64877;50.994;13.650;2022-11-20T11:35:56;99046.94;;;1.88;64.16
76132;BME280;64877;50.994;13.650;2022-11-20T11:40:56;99044.56;;;1.99;64.63
76132;BME280;64877;50.994;13.650;2022-11-20T11:43:25;99031.22;;;1.83;64.54
76132;BME280;64877;50.994;13.650;2022-11-20T11:46:24;99024.19;;;1.47;66.45
76132;BME280;64877;50.994;13.650;2022-11-20T11:49:01;99019.56;;;1.51;66.82
76132;BME280;64877;50.994;13.650;2022-11-20T11:57:31;98994.78;;;1.84;66.89
76132;BME280;64877;50.994;13.650;2022-11-20T12:00:12;99011.91;;;1.79;67.00
76132;BME280;64877;50.994;13.650;2022-11-20T12:05:23;99004.28;;;1.89;66.17
76132;BME280;64877;50.994;13.650;2022-11-20T12:07:56;99004.16;;;1.58;67.23
76132;BME280;64877;50.994;13.650;2022-11-20T12:12:55;98991.41;;;1.47;68.40
76132;BME280;64877;50.994;13.650;2022-11-20T12:15:29;98993.59;;;1.39;69.39
76132;BME280;64877;50.994;13.650;2022-11-20T12:17:55;98984.13;;;1.33;69.13
76132;BME280;64877;50.994;13.650;2022-11-20T12:20:26;98989.53;;;1.32;69.46
76132;BME280;64877;50.994;13.650;2022-11-20T12:25:46;98991.09;;;1.36;69.92
76132;BME280;64877;50.994;13.650;2022-11-20T12:36:42;98996.47;;;1.34;70.35
76132;BME280;64877;50.994;13.650;2022-11-20T12:39:33;98994.75;;;1.33;70.64
76132;BME280;64877;50.994;13.650;2022-11-20T12:45:19;98996.09;;;1.24;71.24
76132;BME280;64877;50.994;13.650;2022-11-20T12:48:27;98995.44;;;1.19;71.31
76132;BME280;64877;50.994;13.650;2022-11-20T12:58:46;98995.63;;;1.16;71.39
76132;BME280;64877;50.994;13.650;2022-11-20T13:04:40;98984.66;;;1.05;72.78
76132;BME280;64877;50.994;13.650;2022-11-20T13:07:13;98986.38;;;1.06;72.94
76132;BME280;64877;50.994;13.650;2022-11-20T13:09:48;98984.66;;;1.05;73.02
76132;BME280;64877;50.994;13.650;2022-11-20T13:12:23;98977.47;;;1.07;73.16
76132;BME280;64877;50.994;13.650;2022-11-20T13:15:04;98977.31;;;1.10;72.86
76132;BME280;64877;50.994;13.650;2022-11-20T13:17:51;98979.03;;;1.11;73.58
76132;BME280;64877;50.994;13.650;2022-11-20T13:20:19;98980.84;;;1.28;73.08
76132;BME280;64877;50.994;13.650;2022-11-20T13:22:50;98972.72;;;1.31;72.68
76132;BME280;64877;50.994;13.650;2022-11-20T13:27:49;98965.75;;;1.28;73.65
76132;BME280;64877;50.994;13.650;2022-11-20T13:30:18;98973.03;;;1.25;72.81
76132;BME280;64877;50.994;13.650;2022-11-20T13:35:32;98968.41;;;1.11;74.10
76132;BME280;64877;50.994;13.650;2022-11-20T13:38:14;98968.53;;;1.08;74.81
76132;BME280;64877;50.994;13.650;2022-11-20T13:40:59;98955.19;;;1.10;75.89
76132;BME280;64877;50.994;13.650;2022-11-20T13:43:47;98961.22;;;1.31;73.61
76132;BME280;64877;50.994;13.650;2022-11-20T13:46:12;98957.44;;;1.17;73.76
76132;BME280;64877;50.994;13.650;2022-11-20T13:48:40;98960.13;;;1.17;73.90
76132;BME280;64877;50.994;13.650;2022-11-20T13:51:28;98955.41;;;1.22;74.55
76132;BME280;64877;50.994;13.650;2022-11-20T13:59:37;98958.78;;;1.09;74.36
76132;BME280;64877;50.994;13.650;2022-11-20T14:02:17;98968.53;;;1.08;74.63
76132;BME280;64877;50.994;13.650;2022-11-20T14:04:48;98969.50;;;1.07;73.88
76132;BME280;64877;50.994;13.650;2022-11-20T14:07:16;98963.53;;;1.02;75.32
76132;BME280;64877;50.994;13.650;2022-11-20T14:09:51;98962.91;;;0.97;74.67
76132;BME280;64877;50.994;13.650;2022-11-20T14:12:20;98966.34;;;0.99;74.28
76132;BME280;64877;50.994;13.650;2022-11-20T14:14:51;98974.41;;;0.97;75.35
76132;BME280;64877;50.994;13.650;2022-11-20T14:17:29;98959.41;;;0.96;76.70
76132;BME280;64877;50.994;13.650;2022-11-20T14:20:04;98963.00;;;0.95;75.32
76132;BME280;64877;50.994;13.650;2022-11-20T14:22:30;98954.22;;;0.93;75.35
76132;BME280;64877;50.994;13.650;2022-11-20T14:27:41;98961.19;;;0.96;75.71
76132;BME280;64877;50.994;13.650;2022-11-20T14:30:18;98956.97;;;0.92;75.85
76132;BME280;64877;50.994;13.650;2022-11-20T14:32:45;98960.94;;;0.83;76.65
76132;BME280;64877;50.994;13.650;2022-11-20T14:35:27;98972.28;;;0.87;74.63
76132;BME280;64877;50.994;13.650;2022-11-20T14:37:54;98975.06;;;0.84;75.41